Time;durP1;ratioP1;P1;durP2;ratioP2;P2;SDS_P1;SDS_P2;PMS_P1;PMS_P2;Temp;Humidity;BMP_temperature;BMP_pressure;BME280_temperature;BME280_humidity;BME280_pressure;Samples;Min_cycle;Max_cycle;Signal;HPM_P1;HPM_P2
2022/10/03 00:01:20;;;;;;;9.10;8.60;;;14.50;53.40;;;;;;5013135;28;20813;-58
2022/10/03 00:04:10;;;;;;;9.00;8.60;;;14.50;53.20;;;;;;5029166;28;20411;-58
2022/10/03 00:06:39;;;;;;;8.90;8.60;;;14.50;53.10;;;;;;5029389;28;20524;-58
2022/10/03 00:09:29;;;;;;;9.60;9.20;;;14.40;53.00;;;;;;5029380;28;20422;-58
2022/10/03 00:12:36;;;;;;;9.30;8.90;;;14.40;53.30;;;;;;5028709;28;20534;-58
2022/10/03 00:15:25;;;;;;;10.13;9.73;;;14.40;53.10;;;;;;5029037;28;20468;-58
2022/10/03 00:18:05;;;;;;;10.20;9.70;;;14.40;53.10;;;;;;5013123;28;20854;-58
2022/10/03 00:20:48;;;;;;;11.00;10.30;;;14.40;52.80;;;;;;5013807;28;20442;-58
2022/10/03 00:23:21;;;;;;;10.03;9.60;;;14.40;53.00;;;;;;5028728;28;20458;-60
2022/10/03 00:25:59;;;;;;;10.90;10.43;;;14.40;52.90;;;;;;5028524;28;20426;-60
2022/10/03 00:28:49;;;;;;;9.90;9.50;;;14.30;52.90;;;;;;5029210;28;20481;-60
2022/10/03 00:31:24;;;;;;;10.00;9.40;;;14.30;52.80;;;;;;5029043;28;21023;-60
2022/10/03 00:34:20;;;;;;;9.87;9.47;;;14.30;52.60;;;;;;5011679;28;20437;-60
2022/10/03 00:37:04;;;;;;;10.30;9.90;;;14.30;52.20;;;;;;5029466;28;20918;-60
2022/10/03 00:39:44;;;;;;;9.50;9.10;;;14.30;52.50;;;;;;5028128;28;20418;-60
2022/10/03 00:42:34;;;;;;;10.20;9.80;;;14.30;52.70;;;;;;5030120;28;20857;-60
2022/10/03 00:45:33;;;;;;;9.97;9.57;;;14.30;52.70;;;;;;5028135;28;20411;-60
2022/10/03 00:48:32;;;;;;;10.90;10.23;;;14.30;52.90;;;;;;5028367;28;20459;-60
2022/10/03 00:51:16;;;;;;;10.73;10.30;;;14.30;52.60;;;;;;5028924;28;20788;-60
2022/10/03 00:53:56;;;;;;;10.87;10.27;;;14.30;52.40;;;;;;5028402;28;20502;-60
2022/10/03 00:56:33;;;;;;;10.73;10.23;;;14.30;52.40;;;;;;5028624;28;20423;-60
2022/10/03 00:59:25;;;;;;;10.93;10.33;;;14.20;53.50;;;;;;5028522;28;20514;-60
2022/10/03 01:01:52;;;;;;;11.50;10.80;;;14.30;53.40;;;;;;5028461;28;20422;-60
2022/10/03 01:04:27;;;;;;;11.30;10.67;;;14.30;53.10;;;;;;5011119;28;20502;-60
2022/10/03 01:07:32;;;;;;;10.93;10.43;;;14.30;52.90;;;;;;5028057;28;20446;-60
2022/10/03 01:10:03;;;;;;;11.17;10.67;;;14.40;52.70;;;;;;5027793;28;20422;-60
2022/10/03 01:12:35;;;;;;;11.30;10.60;;;14.40;52.50;;;;;;5028163;28;20880;-60
2022/10/03 01:15:09;;;;;;;11.90;11.30;;;14.40;52.60;;;;;;5027373;28;20412;-60
2022/10/03 01:17:35;;;;;;;10.90;10.40;;;14.30;52.20;;;;;;5027820;28;20441;-60
2022/10/03 01:20:27;;;;;;;11.43;10.90;;;14.30;53.10;;;;;;5027735;28;20419;-58
2022/10/03 01:23:04;;;;;;;11.47;10.77;;;14.30;53.30;;;;;;5011293;28;20593;-58
2022/10/03 01:25:42;;;;;;;11.17;10.57;;;14.30;53.20;;;;;;5027644;28;20980;-58
2022/10/03 01:31:32;;;;;;;11.07;10.57;;;14.30;53.10;;;;;;5028843;28;20550;-57
2022/10/03 01:34:10;;;;;;;11.77;11.17;;;14.30;53.00;;;;;;5011173;28;20418;-57
2022/10/03 01:37:00;;;;;;;11.20;10.60;;;14.30;53.10;;;;;;5011324;28;20969;-57
2022/10/03 01:39:28;;;;;;;12.00;11.33;;;14.30;53.00;;;;;;5011213;28;20419;-58
2022/10/03 01:42:00;;;;;;;12.33;11.63;;;14.30;52.50;;;;;;5027028;28;20827;-57
2022/10/03 01:44:30;;;;;;;11.40;10.83;;;14.20;52.80;;;;;;5010262;28;20434;-57
2022/10/03 01:47:34;;;;;;;11.77;10.90;;;14.20;52.80;;;;;;5026147;28;20461;-60
2022/10/03 01:50:24;;;;;;;10.90;10.40;;;14.30;52.80;;;;;;4994241;28;20422;-60
2022/10/03 01:53:22;;;;;;;11.63;11.00;;;14.20;52.50;;;;;;5026927;28;20447;-57
2022/10/03 01:56:02;;;;;;;11.40;10.80;;;14.20;52.40;;;;;;5010602;28;20831;-58
2022/10/03 01:59:10;;;;;;;12.47;11.83;;;14.20;52.60;;;;;;5027800;28;20472;-58
2022/10/03 02:01:45;;;;;;;12.40;11.80;;;14.20;52.60;;;;;;5010437;28;20411;-58
2022/10/03 02:04:29;;;;;;;12.70;11.90;;;14.20;52.80;;;;;;5027243;28;20414;-57
2022/10/03 02:07:24;;;;;;;12.23;11.53;;;14.20;52.90;;;;;;5027748;28;20477;-58
2022/10/03 02:10:25;;;;;;;13.13;12.40;;;14.20;52.80;;;;;;5027878;28;20954;-58
2022/10/03 02:13:29;;;;;;;12.70;11.80;;;14.20;52.70;;;;;;5010515;28;20587;-58
2022/10/03 02:16:03;;;;;;;13.10;12.20;;;14.30;52.60;;;;;;5001145;28;20469;-58
2022/10/03 02:18:43;;;;;;;12.50;11.90;;;14.10;52.40;;;;;;5027834;28;20422;-57
2022/10/03 02:21:17;;;;;;;12.90;12.23;;;13.90;54.10;;;;;;5026541;28;20415;-58
2022/10/03 02:23:45;;;;;;;12.50;11.90;;;13.70;54.60;;;;;;5027268;28;20415;-58
2022/10/03 02:26:26;;;;;;;12.57;11.97;;;13.60;55.70;;;;;;5010214;28;20411;-58
2022/10/03 02:29:17;;;;;;;13.20;12.50;;;13.40;57.00;;;;;;5026955;28;20439;-57
2022/10/03 02:32:06;;;;;;;12.20;11.50;;;13.30;58.20;;;;;;5010335;28;20411;-58
2022/10/03 02:35:10;;;;;;;13.47;12.57;;;13.30;58.70;;;;;;5026906;28;20415;-57
2022/10/03 02:37:55;;;;;;;13.80;13.10;;;13.40;58.10;;;;;;5010539;28;20453;-57
2022/10/03 02:40:23;;;;;;;12.30;11.40;;;13.40;58.00;;;;;;5026586;28;20914;-57
2022/10/03 02:43:31;;;;;;;12.97;12.17;;;13.50;58.30;;;;;;5026696;28;20430;-58
2022/10/03 02:46:42;;;;;;;13.10;12.40;;;13.70;57.80;;;;;;5025922;28;20438;-58
2022/10/03 02:49:46;;;;;;;14.27;13.57;;;13.80;57.10;;;;;;5009786;28;20427;-57
2022/10/03 02:52:23;;;;;;;14.27;13.27;;;13.90;56.00;;;;;;5026940;28;21199;-58
2022/10/03 02:55:07;;;;;;;12.27;11.47;;;14.00;55.10;;;;;;5011032;28;20419;-58
2022/10/03 02:58:00;;;;;;;12.87;11.97;;;14.00;55.30;;;;;;5027445;28;20421;-58
2022/10/03 03:00:45;;;;;;;13.00;12.10;;;14.10;55.00;;;;;;5014397;28;20411;-59
2022/10/03 03:03:30;;;;;;;13.63;12.53;;;14.10;55.10;;;;;;5032164;28;20820;-63
2022/10/03 03:05:56;;;;;;;13.37;12.53;;;14.20;54.80;;;;;;5013453;28;20415;-59
2022/10/03 03:08:42;;;;;;;13.10;12.40;;;14.20;54.50;;;;;;5031205;28;20767;-59
2022/10/03 03:11:46;;;;;;;14.13;13.00;;;14.20;54.00;;;;;;5029795;28;20176;-57
2022/10/03 03:14:51;;;;;;;13.60;12.80;;;14.20;53.90;;;;;;5030340;28;20443;-57
2022/10/03 03:17:36;;;;;;;13.77;12.87;;;14.30;53.80;;;;;;5030310;28;20485;-57
2022/10/03 03:20:27;;;;;;;12.40;11.63;;;14.30;53.90;;;;;;5013969;28;20824;-57
2022/10/03 03:23:02;;;;;;;13.03;12.23;;;14.30;53.30;;;;;;5014009;28;20419;-57
2022/10/03 03:25:49;;;;;;;12.70;11.80;;;14.20;53.00;;;;;;5030769;28;20469;-58
2022/10/03 03:28:39;;;;;;;13.17;12.30;;;14.20;53.30;;;;;;5014392;28;20470;-57
2022/10/03 03:31:17;;;;;;;13.30;12.40;;;14.20;52.50;;;;;;5031162;28;20412;-59
2022/10/03 03:33:52;;;;;;;12.30;11.60;;;14.00;53.20;;;;;;5014503;28;20415;-58
2022/10/03 03:36:40;;;;;;;11.33;10.73;;;14.00;54.30;;;;;;5030985;28;20430;-57
2022/10/03 03:39:33;;;;;;;12.03;11.33;;;14.00;54.10;;;;;;5031464;28;20785;-59
2022/10/03 03:42:21;;;;;;;12.63;11.80;;;14.10;53.90;;;;;;5031275;28;20408;-56
2022/10/03 03:45:28;;;;;;;12.37;11.47;;;14.10;53.90;;;;;;5030933;28;20489;-58
2022/10/03 03:48:12;;;;;;;11.70;11.10;;;14.10;53.40;;;;;;4979687;28;20474;-59
2022/10/03 03:51:15;;;;;;;12.70;12.00;;;14.10;53.30;;;;;;5032525;28;20797;-60
2022/10/03 03:54:02;;;;;;;12.40;11.73;;;14.10;52.70;;;;;;5030818;28;20407;-61
2022/10/03 03:57:00;;;;;;;13.77;12.87;;;14.00;53.20;;;;;;5031502;28;20857;-61
2022/10/03 03:59:40;;;;;;;12.77;11.90;;;13.90;54.20;;;;;;5031946;28;20424;-61
2022/10/03 04:02:08;;;;;;;13.57;12.30;;;14.00;54.00;;;;;;5014907;28;20986;-59
2022/10/03 04:04:52;;;;;;;13.50;12.60;;;14.10;54.00;;;;;;5031846;28;20430;-59
2022/10/03 04:07:32;;;;;;;13.43;12.73;;;14.10;53.80;;;;;;5031163;28;20463;-58
2022/10/03 04:10:35;;;;;;;13.73;12.50;;;14.20;53.80;;;;;;5030182;28;20933;-59
2022/10/03 04:13:17;;;;;;;12.37;11.77;;;14.20;53.30;;;;;;4998149;28;20530;-58
2022/10/03 04:18:56;;;;;;;12.50;11.90;;;13.90;51.70;;;;;;5015333;28;20490;-58
2022/10/03 04:19:24;;;;;;;14.17;13.43;;;13.60;52.60;;;;;;5032742;28;20411;-58
2022/10/03 04:21:54;;;;;;;13.30;12.40;;;13.50;53.60;;;;;;5014916;28;20400;-59
2022/10/03 04:24:26;;;;;;;12.90;12.00;;;13.50;54.50;;;;;;5031363;28;20411;-58
2022/10/03 04:26:52;;;;;;;12.20;11.50;;;13.60;54.60;;;;;;5031240;28;20459;-59
2022/10/03 04:29:23;;;;;;;13.07;12.27;;;13.70;54.60;;;;;;5030989;28;20503;-58
2022/10/03 04:32:02;;;;;;;13.20;12.23;;;13.70;54.70;;;;;;5031169;28;20216;-58
2022/10/03 04:34:36;;;;;;;13.13;12.43;;;13.70;53.70;;;;;;5014425;28;20414;-59
2022/10/03 04:37:30;;;;;;;13.70;12.80;;;13.60;53.80;;;;;;5031040;28;20415;-59
2022/10/03 04:40:21;;;;;;;13.43;12.33;;;13.50;54.00;;;;;;5014416;28;20981;-59
2022/10/03 04:42:53;;;;;;;13.00;12.30;;;13.70;54.60;;;;;;5030616;28;20416;-58
2022/10/03 04:45:47;;;;;;;12.80;12.00;;;13.80;54.00;;;;;;5031467;28;20848;-58
2022/10/03 04:48:32;;;;;;;13.03;12.23;;;13.70;54.00;;;;;;5031159;28;20557;-58
2022/10/03 04:51:07;;;;;;;13.40;12.60;;;13.70;54.10;;;;;;5030662;28;20416;-59
2022/10/03 04:53:40;;;;;;;13.47;12.67;;;13.70;54.00;;;;;;5030621;28;20419;-59
2022/10/03 04:56:30;;;;;;;12.70;12.00;;;13.60;54.00;;;;;;5014565;28;20419;-58
2022/10/03 04:59:08;;;;;;;13.07;12.47;;;13.60;53.80;;;;;;5031320;28;20410;-59
2022/10/03 05:01:41;;;;;;;13.67;12.60;;;13.60;54.50;;;;;;5030052;28;20419;-58
2022/10/03 05:04:42;;;;;;;12.13;11.43;;;13.60;53.80;;;;;;5030598;28;20785;-59
2022/10/03 05:07:10;;;;;;;13.17;12.07;;;13.40;54.80;;;;;;5013546;28;20510;-58
2022/10/03 05:09:53;;;;;;;13.70;12.07;;;13.20;55.70;;;;;;5029861;28;20442;-59
2022/10/03 05:12:34;;;;;;;13.17;12.40;;;13.10;56.30;;;;;;5014416;28;20411;-58
2022/10/03 05:15:06;;;;;;;13.33;12.53;;;13.00;56.80;;;;;;5013607;28;20447;-58
2022/10/03 05:17:45;;;;;;;14.20;13.40;;;12.90;57.50;;;;;;5030155;28;20453;-58
2022/10/03 05:20:23;;;;;;;15.20;14.10;;;12.90;58.40;;;;;;5030745;28;20423;-59
2022/10/03 05:23:06;;;;;;;14.93;13.90;;;12.90;58.50;;;;;;5030894;28;20422;-58
2022/10/03 05:25:59;;;;;;;13.23;12.33;;;12.90;58.10;;;;;;5029752;28;20506;-59
2022/10/03 05:28:27;;;;;;;14.90;14.00;;;13.00;58.30;;;;;;5029758;28;20470;-58
2022/10/03 05:31:11;;;;;;;17.10;15.80;;;13.00;57.70;;;;;;5029324;28;20411;-58
2022/10/03 05:33:50;;;;;;;14.17;13.23;;;12.90;58.00;;;;;;5013507;28;20407;-61
2022/10/03 05:36:28;;;;;;;13.93;13.13;;;12.80;58.50;;;;;;5013284;28;20411;-60
2022/10/03 05:39:18;;;;;;;12.90;12.10;;;12.80;58.20;;;;;;5013746;28;20777;-61
2022/10/03 05:42:04;;;;;;;15.93;14.73;;;12.80;58.20;;;;;;5029721;28;20553;-61
2022/10/03 05:44:49;;;;;;;17.23;15.33;;;12.90;58.30;;;;;;5029893;28;20415;-60
2022/10/03 05:47:45;;;;;;;17.80;16.40;;;13.10;58.00;;;;;;5009485;28;20467;-60
2022/10/03 05:50:32;;;;;;;18.07;16.73;;;13.20;57.20;;;;;;5009483;28;20416;-61
2022/10/03 05:53:01;;;;;;;19.60;17.80;;;13.40;56.80;;;;;;4993305;28;20966;-59
2022/10/03 05:55:51;;;;;;;13.40;12.17;;;13.50;55.80;;;;;;4993919;28;20428;-59
2022/10/03 05:58:49;;;;;;;17.93;16.63;;;13.60;54.50;;;;;;5010453;28;20854;-59
2022/10/03 06:01:37;;;;;;;16.97;15.67;;;13.70;54.60;;;;;;5010112;28;20448;-59
2022/10/03 06:04:45;;;;;;;17.47;16.20;;;13.70;54.20;;;;;;5000507;28;20416;-59
2022/10/03 06:07:11;;;;;;;17.60;16.00;;;13.80;53.80;;;;;;5008518;28;20936;-59
2022/10/03 06:09:54;;;;;;;15.27;14.03;;;13.70;53.00;;;;;;5026357;28;20460;-59
2022/10/03 06:12:30;;;;;;;14.67;13.57;;;13.70;52.70;;;;;;5010208;28;20448;-60
2022/10/03 06:15:33;;;;;;;15.37;14.00;;;13.70;53.20;;;;;;5011656;28;20420;-60
2022/10/03 06:18:12;;;;;;;14.53;13.33;;;13.70;53.20;;;;;;5027036;28;20875;-60
2022/10/03 06:20:49;;;;;;;14.43;13.13;;;13.70;52.80;;;;;;5026586;28;20424;-61
2022/10/03 06:23:40;;;;;;;13.90;12.90;;;13.80;52.50;;;;;;5026799;28;20426;-61
2022/10/03 06:26:11;;;;;;;14.90;13.70;;;13.80;51.90;;;;;;5026955;28;20476;-60
2022/10/03 06:29:03;;;;;;;16.87;15.27;;;13.70;52.10;;;;;;5026567;28;20467;-59
2022/10/03 06:32:02;;;;;;;16.53;15.23;;;13.60;52.80;;;;;;4998933;28;20780;-59
2022/10/03 06:34:59;;;;;;;15.77;14.20;;;13.60;52.50;;;;;;5030522;28;20514;-59
2022/10/03 06:38:18;;;;;;;16.13;14.67;;;13.40;53.30;;;;;;5030985;28;20412;-59
2022/10/03 06:41:20;;;;;;;15.87;14.40;;;13.40;53.30;;;;;;4919330;29;20913;-59
2022/10/03 06:44:09;;;;;;;15.73;14.13;;;13.40;53.60;;;;;;4932219;29;20428;-59
2022/10/03 06:46:51;;;;;;;19.53;17.70;;;13.50;53.00;;;;;;5017681;28;20918;-59
2022/10/03 06:49:35;;;;;;;15.47;13.97;;;13.50;52.90;;;;;;5037612;28;20431;-66
2022/10/03 06:52:28;;;;;;;15.57;14.17;;;13.50;52.90;;;;;;5033690;28;20454;-56
2022/10/03 06:55:26;;;;;;;15.90;14.50;;;13.60;53.30;;;;;;5050263;28;20412;-58
2022/10/03 06:58:01;;;;;;;16.27;14.77;;;13.80;53.50;;;;;;5050403;28;20411;-55
2022/10/03 07:00:51;;;;;;;14.80;13.53;;;13.80;52.40;;;;;;5033459;28;20426;-61
2022/10/03 07:03:51;;;;;;;14.40;12.90;;;13.90;52.00;;;;;;5033435;28;20415;-54
2022/10/03 07:06:34;;;;;;;13.50;12.60;;;13.90;51.70;;;;;;5033442;28;20423;-58
2022/10/03 07:09:12;;;;;;;15.60;14.50;;;14.00;52.50;;;;;;5032866;28;20427;-57
2022/10/03 07:12:09;;;;;;;19.63;15.60;;;14.10;51.70;;;;;;5033295;28;20419;-58
2022/10/03 07:15:13;;;;;;;17.00;15.30;;;14.10;50.70;;;;;;5033145;28;20462;-58
2022/10/03 07:17:58;;;;;;;17.13;15.63;;;14.10;50.00;;;;;;4983311;28;20533;-58
2022/10/03 07:20:45;;;;;;;16.50;14.70;;;14.10;49.40;;;;;;5032821;28;20426;-59
2022/10/03 07:23:49;;;;;;;14.93;13.70;;;14.10;49.00;;;;;;5033032;28;20477;-59
2022/10/03 07:26:20;;;;;;;17.03;15.70;;;14.10;49.10;;;;;;5032967;28;20427;-58
2022/10/03 07:29:20;;;;;;;18.63;16.70;;;14.10;49.30;;;;;;5032996;28;20418;-61
2022/10/03 07:32:11;;;;;;;16.90;15.37;;;14.10;49.40;;;;;;5021608;28;20404;-61
2022/10/03 07:35:04;;;;;;;16.70;15.17;;;14.10;49.20;;;;;;5016322;28;20468;-60
2022/10/03 07:41:13;;;;;;;15.57;14.27;;;14.10;48.80;;;;;;5008171;28;20410;-61
2022/10/03 07:44:28;;;;;;;15.23;14.00;;;14.00;48.80;;;;;;5015261;28;20403;-61
2022/10/03 07:47:15;;;;;;;16.73;15.23;;;14.00;48.70;;;;;;4981433;28;20467;-60
2022/10/03 07:49:59;;;;;;;15.70;14.40;;;14.10;48.80;;;;;;5018291;28;20510;-61
2022/10/03 07:52:34;;;;;;;16.60;15.20;;;14.10;48.80;;;;;;5016057;28;20469;-61
2022/10/03 07:55:18;;;;;;;20.17;14.47;;;14.10;49.10;;;;;;5015834;28;20418;-60
2022/10/03 07:57:53;;;;;;;17.80;16.20;;;14.10;49.00;;;;;;5016131;28;20442;-61
2022/10/03 08:01:00;;;;;;;16.50;14.83;;;14.10;49.20;;;;;;5015189;28;20748;-61
2022/10/03 08:03:44;;;;;;;16.37;15.10;;;14.10;48.40;;;;;;5015328;28;20431;-61
2022/10/03 08:06:16;;;;;;;17.70;16.10;;;14.00;49.10;;;;;;5014740;28;20410;-61
2022/10/03 08:09:00;;;;;;;16.47;14.80;;;14.10;49.30;;;;;;5015196;28;20455;-61
2022/10/03 08:12:01;;;;;;;16.87;14.37;;;14.10;48.80;;;;;;5015386;28;20412;-61
2022/10/03 08:14:48;;;;;;;15.27;13.97;;;14.10;48.80;;;;;;5015262;28;20827;-61
2022/10/03 08:17:32;;;;;;;16.80;15.20;;;14.10;48.70;;;;;;5015194;28;20439;-59
2022/10/03 08:19:58;;;;;;;17.10;15.70;;;14.10;48.70;;;;;;5015432;28;20786;-59
2022/10/03 08:22:44;;;;;;;16.30;14.90;;;14.10;48.80;;;;;;5032916;28;20422;-60
2022/10/03 08:25:39;;;;;;;16.33;14.93;;;14.10;48.90;;;;;;5015365;28;20195;-60
2022/10/03 08:28:20;;;;;;;17.00;15.40;;;14.10;49.30;;;;;;5014972;28;20471;-60
2022/10/03 08:31:13;;;;;;;16.10;14.80;;;14.10;49.20;;;;;;5014686;28;20427;-59
2022/10/03 08:33:48;;;;;;;13.87;12.63;;;14.10;49.30;;;;;;5015081;28;20903;-59
2022/10/03 08:36:17;;;;;;;15.83;14.57;;;14.10;48.80;;;;;;5014972;28;20914;-59
2022/10/03 08:39:04;;;;;;;14.83;13.60;;;14.10;48.80;;;;;;5014901;28;20419;-54
2022/10/03 08:41:52;;;;;;;14.43;13.23;;;14.10;48.70;;;;;;5031112;28;20498;-54
2022/10/03 08:44:53;;;;;;;15.30;14.07;;;14.20;49.40;;;;;;5031240;28;20439;-53
2022/10/03 08:48:07;;;;;;;14.77;13.57;;;14.20;49.90;;;;;;4926091;28;20987;-59
2022/10/03 08:50:52;;;;;;;14.07;13.07;;;14.20;48.50;;;;;;5012125;28;20473;-59
2022/10/03 08:53:55;;;;;;;14.80;13.60;;;14.20;48.30;;;;;;4992782;28;20424;-58
2022/10/03 08:56:45;;;;;;;17.53;15.20;;;14.20;46.80;;;;;;5029263;28;20411;-58
2022/10/03 08:59:44;;;;;;;14.53;13.53;;;14.20;46.00;;;;;;5013023;28;20853;-58
2022/10/03 09:02:21;;;;;;;14.97;13.70;;;14.10;45.90;;;;;;5013006;28;20427;-58
2022/10/03 09:05:15;;;;;;;15.03;13.80;;;14.10;46.30;;;;;;5014111;28;20431;-58
2022/10/03 09:08:18;;;;;;;15.43;14.17;;;14.20;46.20;;;;;;5030938;28;20463;-58
2022/10/03 09:10:50;;;;;;;15.63;14.30;;;14.10;46.00;;;;;;5014474;28;20840;-58
2022/10/03 09:13:37;;;;;;;17.00;15.50;;;14.10;46.90;;;;;;5013511;28;20470;-58
2022/10/03 09:16:36;;;;;;;20.50;16.37;;;14.10;46.80;;;;;;5013532;28;20430;-57
2022/10/03 09:19:07;;;;;;;15.33;14.20;;;14.10;47.20;;;;;;5014043;28;20561;-58
2022/10/03 09:22:04;;;;;;;15.17;13.77;;;14.10;46.50;;;;;;5013398;28;20412;-58
2022/10/03 09:25:00;;;;;;;13.40;12.17;;;14.10;46.10;;;;;;5013793;28;20769;-55
2022/10/03 09:27:45;;;;;;;13.23;12.20;;;14.10;45.80;;;;;;5013556;28;21025;-55
2022/10/03 09:30:31;;;;;;;13.83;12.77;;;14.10;45.30;;;;;;5014088;28;20412;-55
2022/10/03 09:33:33;;;;;;;13.60;12.70;;;14.20;45.30;;;;;;5013943;28;20419;-54
2022/10/03 09:36:14;;;;;;;13.63;12.60;;;14.20;45.30;;;;;;5014020;28;20515;-54
2022/10/03 09:39:17;;;;;;;12.23;11.23;;;14.20;45.00;;;;;;5014381;28;20804;-55
2022/10/03 09:41:58;;;;;;;13.07;12.17;;;14.20;45.30;;;;;;5014006;28;20431;-59
2022/10/03 09:44:35;;;;;;;12.70;11.80;;;14.20;45.30;;;;;;5013909;28;20431;-58
2022/10/03 09:47:22;;;;;;;12.23;11.20;;;14.20;44.80;;;;;;5014118;28;20462;-57
2022/10/03 09:50:06;;;;;;;12.10;11.30;;;14.30;42.60;;;;;;5013851;28;20426;-58
2022/10/03 09:52:53;;;;;;;14.03;11.80;;;14.40;43.30;;;;;;5014058;28;20424;-58
2022/10/03 09:55:37;;;;;;;12.37;11.60;;;14.40;43.40;;;;;;5014091;28;20415;-58
2022/10/03 09:58:32;;;;;;;13.73;12.47;;;14.40;42.40;;;;;;5013595;28;20423;-57
2022/10/03 10:01:28;;;;;;;13.37;12.33;;;14.50;40.60;;;;;;5013954;28;20423;-58
2022/10/03 10:04:31;;;;;;;12.10;11.40;;;14.40;40.30;;;;;;5014063;28;20477;-56
2022/10/03 10:07:18;;;;;;;12.97;12.13;;;14.50;40.50;;;;;;5014310;28;20880;-55
2022/10/03 10:10:24;;;;;;;12.70;11.70;;;14.60;40.50;;;;;;5017754;28;20419;-56
2022/10/03 10:13:14;;;;;;;11.67;10.67;;;14.70;39.20;;;;;;4985292;28;20420;-56
2022/10/03 10:16:08;;;;;;;12.13;11.23;;;14.70;37.80;;;;;;5018190;28;20442;-56
2022/10/03 10:19:05;;;;;;;12.33;11.53;;;14.80;38.10;;;;;;5017354;28;20455;-56
2022/10/03 10:22:02;;;;;;;11.73;10.93;;;15.00;37.10;;;;;;5017836;28;20434;-57
2022/10/03 10:24:35;;;;;;;12.70;11.57;;;15.00;35.10;;;;;;5018065;28;20415;-52
2022/10/03 10:27:06;;;;;;;13.47;12.57;;;14.90;35.80;;;;;;5017751;28;20542;-55
2022/10/03 10:29:38;;;;;;;12.20;11.07;;;14.90;36.70;;;;;;5017751;28;20416;-51
2022/10/03 10:32:10;;;;;;;13.43;12.50;;;14.90;35.80;;;;;;5017457;28;20415;-54
2022/10/03 10:34:57;;;;;;;12.87;12.23;;;14.90;37.40;;;;;;5017653;28;20411;-54
2022/10/03 10:37:53;;;;;;;13.30;12.20;;;15.00;38.20;;;;;;5017689;28;20433;-49
2022/10/03 10:40:57;;;;;;;11.57;10.97;;;15.10;36.30;;;;;;5017272;28;20973;-53
2022/10/03 10:43:52;;;;;;;13.37;12.33;;;15.10;36.00;;;;;;5017289;28;20442;-54
2022/10/03 10:46:27;;;;;;;11.50;10.90;;;15.10;36.00;;;;;;5033778;28;20450;-55
2022/10/03 10:49:30;;;;;;;11.90;11.20;;;15.10;35.50;;;;;;5017279;28;20792;-54
2022/10/03 10:52:10;;;;;;;11.57;10.97;;;15.00;35.80;;;;;;5035015;28;20395;-55
2022/10/03 10:55:13;;;;;;;12.33;11.40;;;15.10;35.60;;;;;;5017232;28;20926;-53
2022/10/03 10:58:14;;;;;;;11.97;10.97;;;15.10;35.20;;;;;;5017206;28;20464;-51
2022/10/03 11:00:57;;;;;;;11.43;10.80;;;15.20;35.80;;;;;;5033521;28;20561;-54
2022/10/03 11:03:41;;;;;;;11.70;10.80;;;15.20;36.50;;;;;;5033733;28;20540;-54
2022/10/03 11:06:16;;;;;;;11.63;10.83;;;15.10;36.00;;;;;;5027330;28;20497;-54
2022/10/03 11:09:23;;;;;;;12.83;12.03;;;15.10;34.90;;;;;;5033952;28;20536;-56
2022/10/03 11:12:23;;;;;;;11.83;10.93;;;15.10;34.90;;;;;;5050184;28;20411;-55
2022/10/03 11:15:25;;;;;;;12.47;11.47;;;15.10;35.30;;;;;;5033545;28;20487;-56
2022/10/03 11:18:19;;;;;;;11.00;10.27;;;15.10;36.00;;;;;;5033606;28;20445;-55
2022/10/03 11:21:12;;;;;;;12.70;11.90;;;15.20;36.10;;;;;;5033141;28;20411;-56
2022/10/03 11:23:56;;;;;;;12.73;11.70;;;15.30;36.20;;;;;;5033560;28;20435;-56
2022/10/03 11:27:00;;;;;;;11.47;10.60;;;15.30;36.20;;;;;;5033404;28;20422;-57
2022/10/03 11:29:39;;;;;;;12.13;11.07;;;15.30;36.20;;;;;;5049762;28;20419;-56
2022/10/03 11:32:17;;;;;;;12.57;11.00;;;15.30;35.60;;;;;;5032767;28;20414;-54
2022/10/03 11:35:11;;;;;;;11.43;10.40;;;15.20;35.50;;;;;;5032954;28;20459;-55
2022/10/03 11:37:37;;;;;;;10.77;9.87;;;15.20;34.80;;;;;;5049518;28;20416;-52
2022/10/03 11:40:45;;;;;;;12.80;10.33;;;15.10;33.80;;;;;;5032735;28;20469;-54
2022/10/03 11:43:32;;;;;;;10.30;9.60;;;15.00;35.10;;;;;;5023861;28;20538;-56
2022/10/03 11:46:04;;;;;;;10.63;9.83;;;15.10;36.00;;;;;;5031307;28;20415;-55
2022/10/03 11:48:56;;;;;;;12.17;11.00;;;15.00;34.30;;;;;;5032296;28;20463;-55
2022/10/03 11:51:40;;;;;;;10.70;10.10;;;15.10;33.90;;;;;;4970767;28;20813;-56
2022/10/03 11:54:26;;;;;;;11.13;10.10;;;15.10;31.70;;;;;;5016648;28;20407;-56
2022/10/03 11:57:17;;;;;;;9.27;8.83;;;15.10;32.20;;;;;;5016389;28;20420;-56
2022/10/03 11:59:58;;;;;;;10.00;9.17;;;15.20;31.80;;;;;;5003345;28;20758;-54
2022/10/03 12:02:59;;;;;;;9.63;9.03;;;15.10;29.80;;;;;;5016242;28;20427;-53
2022/10/03 12:05:33;;;;;;;9.63;9.13;;;15.10;30.00;;;;;;5016495;28;20427;-55
2022/10/03 12:11:32;;;;;;;9.50;8.90;;;15.20;30.90;;;;;;5034173;28;20402;-54
2022/10/03 12:14:13;;;;;;;9.40;8.70;;;15.40;31.30;;;;;;5029172;28;20428;-56
2022/10/03 12:16:56;;;;;;;9.90;9.40;;;15.50;30.00;;;;;;5012733;28;20939;-56
2022/10/03 12:19:34;;;;;;;10.47;9.50;;;15.40;30.60;;;;;;5012871;28;20912;-55
2022/10/03 12:22:12;;;;;;;11.70;10.67;;;15.40;31.00;;;;;;5028752;28;20416;-55
2022/10/03 12:24:42;;;;;;;10.50;9.67;;;15.50;32.30;;;;;;5029204;28;20412;-53
2022/10/03 12:27:14;;;;;;;10.10;9.30;;;15.50;32.50;;;;;;5028835;28;20460;-54
2022/10/03 12:29:46;;;;;;;9.70;9.20;;;15.50;31.50;;;;;;5012367;28;20416;-54
2022/10/03 12:32:15;;;;;;;10.27;9.57;;;15.50;31.10;;;;;;5028553;28;20904;-54
2022/10/03 12:34:59;;;;;;;10.50;9.90;;;15.50;30.90;;;;;;5012619;28;20770;-55
2022/10/03 12:37:49;;;;;;;12.60;11.80;;;15.50;32.00;;;;;;5012283;28;20408;-56
2022/10/03 12:40:33;;;;;;;10.50;9.90;;;15.60;32.10;;;;;;5028302;28;20433;-59
2022/10/03 12:43:28;;;;;;;9.47;9.07;;;15.60;31.80;;;;;;5028470;28;20417;-59
2022/10/03 12:46:05;;;;;;;9.47;8.97;;;15.60;29.70;;;;;;5010236;28;20459;-59
2022/10/03 12:48:47;;;;;;;10.50;9.90;;;15.70;30.50;;;;;;5028615;28;20477;-59
2022/10/03 12:51:50;;;;;;;11.53;10.67;;;15.70;29.20;;;;;;5011955;28;20412;-56
2022/10/03 12:54:38;;;;;;;11.60;10.80;;;15.70;32.90;;;;;;5028274;28;20423;-58
2022/10/03 12:57:22;;;;;;;10.17;9.57;;;15.80;33.90;;;;;;5037204;28;20461;-58
2022/10/03 12:59:57;;;;;;;10.67;10.07;;;15.80;30.00;;;;;;5031459;28;20813;-58
2022/10/03 13:02:39;;;;;;;9.57;9.07;;;15.70;28.20;;;;;;5031797;28;20509;-58
2022/10/03 13:05:21;;;;;;;10.57;10.00;;;15.70;27.10;;;;;;5027038;28;20432;-58
2022/10/03 13:07:56;;;;;;;10.43;9.93;;;15.70;30.90;;;;;;5003392;28;20473;-58
2022/10/03 13:10:52;;;;;;;11.80;10.80;;;15.80;29.00;;;;;;5013219;28;20494;-58
2022/10/03 13:13:50;;;;;;;10.30;9.50;;;15.90;29.20;;;;;;5014841;28;20450;-59
2022/10/03 13:16:30;;;;;;;11.03;10.10;;;15.90;28.40;;;;;;5001522;28;20431;-56
2022/10/03 13:19:11;;;;;;;9.83;9.33;;;15.90;29.10;;;;;;5014641;28;20831;-58
2022/10/03 13:21:45;;;;;;;10.30;9.70;;;15.90;28.80;;;;;;5031063;28;20490;-58
2022/10/03 13:24:25;;;;;;;10.50;9.80;;;16.00;29.10;;;;;;5030755;28;20462;-58
2022/10/03 13:27:31;;;;;;;10.20;9.70;;;16.00;28.30;;;;;;5047610;28;20527;-57
2022/10/03 13:30:13;;;;;;;9.77;9.30;;;16.00;28.40;;;;;;5029182;28;20422;-58
2022/10/03 13:32:44;;;;;;;10.30;9.70;;;16.10;29.40;;;;;;5030870;28;20419;-58
2022/10/03 13:38:14;;;;;;;11.33;10.20;;;16.00;27.30;;;;;;5031927;28;20851;-58
2022/10/03 13:41:09;;;;;;;9.27;8.77;;;16.00;27.30;;;;;;5030224;28;20510;-58
2022/10/03 13:43:37;;;;;;;10.80;10.20;;;16.00;27.30;;;;;;4993748;28;20417;-56
2022/10/03 13:46:13;;;;;;;9.87;8.97;;;16.00;28.20;;;;;;5046883;28;20427;-56
2022/10/03 13:48:45;;;;;;;10.23;9.70;;;16.10;26.80;;;;;;5047219;28;20458;-56
2022/10/03 13:51:44;;;;;;;10.03;9.53;;;16.10;26.70;;;;;;5046688;28;20426;-57
2022/10/03 13:54:45;;;;;;;10.70;9.70;;;16.00;27.30;;;;;;5047105;28;20416;-58
2022/10/03 13:57:22;;;;;;;9.33;8.83;;;16.00;26.80;;;;;;5046883;28;20427;-57
2022/10/03 13:59:54;;;;;;;10.53;10.03;;;16.00;26.20;;;;;;5046996;28;20427;-56
2022/10/03 14:02:42;;;;;;;9.97;9.37;;;15.90;26.80;;;;;;5046812;28;20419;-56
2022/10/03 14:05:31;;;;;;;10.07;9.10;;;16.00;27.60;;;;;;5030334;28;20498;-56
2022/10/03 14:08:05;;;;;;;9.63;9.07;;;15.90;27.20;;;;;;5030197;28;20749;-57
2022/10/03 14:11:04;;;;;;;9.60;8.90;;;15.80;27.10;;;;;;5030124;28;20446;-56
2022/10/03 14:13:45;;;;;;;8.67;8.20;;;15.90;27.00;;;;;;5030030;28;20510;-56
2022/10/03 14:16:40;;;;;;;9.07;8.13;;;15.90;27.20;;;;;;5029676;28;20437;-57
2022/10/03 14:19:31;;;;;;;8.67;8.17;;;15.90;27.20;;;;;;5013543;28;20422;-57